Time;durP1;ratioP1;P1;durP2;ratioP2;P2;SDS_P1;SDS_P2;PMS_P1;PMS_P2;Temp;Humidity;BMP_temperature;BMP_pressure;BME280_temperature;BME280_humidity;BME280_pressure;Samples;Min_cycle;Max_cycle;Signal;HPM_P1;HPM_P2
2023/10/23 00:01:27;;;;;;;2.40;1.02;;;;;;;13.74;75.46;99584.13;4475301;32;35134;-76
2023/10/23 00:03:58;;;;;;;1.50;0.82;;;;;;;13.99;74.70;99587.75;4474463;32;33543;-75
2023/10/23 00:06:32;;;;;;;1.60;0.70;;;;;;;13.90;74.74;99582.78;4472381;31;33249;-75
2023/10/23 00:09:04;;;;;;;3.20;0.98;;;;;;;13.83;74.94;99576.03;4467069;32;34819;-76
2023/10/23 00:11:58;;;;;;;0.65;0.60;;;;;;;13.83;74.78;99581.25;4475857;32;34731;-75
2023/10/23 00:14:27;;;;;;;0.88;0.60;;;;;;;13.94;74.59;99575.72;4473700;32;33726;-76
2023/10/23 00:17:03;;;;;;;2.35;1.12;;;;;;;13.80;74.91;99570.91;4458776;31;33392;-77
2023/10/23 00:19:38;;;;;;;1.00;0.70;;;;;;;13.95;74.07;99574.84;4466619;32;33592;-75
2023/10/23 00:22:07;;;;;;;0.77;0.68;;;;;;;13.72;74.90;99570.25;4461942;32;33817;-78
2023/10/23 00:24:40;;;;;;;0.85;0.85;;;;;;;13.69;75.08;99571.19;4464239;32;34543;-75
2023/10/23 00:27:09;;;;;;;0.73;0.60;;;;;;;13.79;74.80;99571.81;4473192;32;33502;-78
2023/10/23 00:29:41;;;;;;;0.60;0.60;;;;;;;13.88;74.06;99580.22;4477960;32;33698;-75
2023/10/23 00:32:10;;;;;;;2.12;0.50;;;;;;;13.89;74.33;99573.25;4482841;32;34431;-75
2023/10/23 00:34:44;;;;;;;0.80;0.70;;;;;;;13.86;73.99;99583.78;4478028;32;33589;-74
2023/10/23 00:37:12;;;;;;;0.62;0.60;;;;;;;13.86;74.23;99582.00;4477377;32;33823;-75
2023/10/23 00:39:45;;;;;;;1.87;0.80;;;;;;;13.79;74.40;99582.22;4477677;32;32909;-74
2023/10/23 00:42:14;;;;;;;0.70;0.70;;;;;;;13.74;74.44;99589.31;4468718;32;33603;-78
2023/10/23 00:44:43;;;;;;;0.70;0.65;;;;;;;13.94;73.62;99597.47;4476362;32;33902;-76
2023/10/23 00:47:13;;;;;;;0.50;0.50;;;;;;;14.06;72.88;99596.22;4461686;32;34065;-75
2023/10/23 00:49:51;;;;;;;2.55;0.70;;;;;;;13.81;73.63;99591.72;4461701;32;33196;-78
2023/10/23 00:52:20;;;;;;;1.08;0.70;;;;;;;13.93;73.32;99595.72;4476041;32;33948;-78
2023/10/23 00:54:49;;;;;;;0.80;0.70;;;;;;;13.75;73.71;99601.44;4483068;32;33433;-77
2023/10/23 00:57:18;;;;;;;1.58;0.90;;;;;;;13.74;73.63;99591.94;4477192;32;33620;-76
2023/10/23 00:59:50;;;;;;;1.02;0.88;;;;;;;13.75;73.74;99580.59;4477964;32;33554;-76
2023/10/23 01:02:19;;;;;;;1.35;0.80;;;;;;;13.75;73.64;99576.25;4482225;32;33399;-78
2023/10/23 01:04:52;;;;;;;1.05;0.75;;;;;;;13.69;73.86;99575.56;4482923;32;33832;-75
2023/10/23 01:07:21;;;;;;;1.30;0.70;;;;;;;13.61;73.78;99576.63;4480061;32;34479;-75
2023/10/23 01:09:51;;;;;;;2.15;0.98;;;;;;;13.73;73.90;99577.22;4477177;32;33047;-77
2023/10/23 01:12:20;;;;;;;0.60;0.60;;;;;;;13.83;73.32;99576.03;4481304;32;34284;-77
2023/10/23 01:14:52;;;;;;;1.70;0.93;;;;;;;13.59;73.96;99573.22;4476660;32;34877;-75
2023/10/23 01:17:24;;;;;;;1.25;0.80;;;;;;;13.71;73.66;99577.22;4482496;32;34527;-75
2023/10/23 01:19:57;;;;;;;0.60;0.60;;;;;;;13.76;73.43;99582.31;4475495;32;33264;-76
2023/10/23 01:22:26;;;;;;;0.70;0.70;;;;;;;13.68;73.34;99595.56;4478555;32;34266;-75
2023/10/23 01:24:56;;;;;;;0.77;0.77;;;;;;;13.57;74.23;99593.25;4476911;32;34436;-77
2023/10/23 01:27:27;;;;;;;0.80;0.80;;;;;;;13.60;73.79;99593.19;4482699;32;34415;-76
2023/10/23 01:29:59;;;;;;;1.05;0.90;;;;;;;13.76;73.04;99593.59;4482243;32;32615;-77
2023/10/23 01:32:28;;;;;;;0.70;0.70;;;;;;;13.66;73.57;99593.00;4474770;31;33421;-77
2023/10/23 01:35:00;;;;;;;0.73;0.60;;;;;;;13.74;73.69;99589.31;4462826;32;34382;-76
2023/10/23 01:37:29;;;;;;;0.60;0.60;;;;;;;13.62;73.81;99590.53;4474364;32;33605;-76
2023/10/23 01:40:00;;;;;;;0.60;0.60;;;;;;;13.51;74.39;99589.97;4482389;32;34027;-76
2023/10/23 01:42:31;;;;;;;1.05;0.62;;;;;;;13.60;74.07;99594.91;4477232;32;33702;-76
2023/10/23 01:45:04;;;;;;;0.57;0.57;;;;;;;13.59;74.19;99588.84;4473729;32;34158;-78
2023/10/23 01:47:33;;;;;;;0.52;0.52;;;;;;;13.57;73.92;99587.19;4471757;32;34536;-75
2023/10/23 01:50:06;;;;;;;2.33;0.70;;;;;;;13.21;75.86;99588.06;4474865;32;33316;-76
2023/10/23 01:52:35;;;;;;;0.93;0.77;;;;;;;13.41;74.99;99589.37;4473473;32;33558;-75
2023/10/23 01:55:06;;;;;;;1.65;0.70;;;;;;;13.37;75.08;99585.97;4473031;32;33587;-75
2023/10/23 01:57:36;;;;;;;;;;;;;;;13.46;74.55;99590.09;4462309;32;33592;-77
2023/10/23 02:00:10;;;;;;;1.37;0.90;;;;;;;13.53;74.21;99591.63;4474409;32;33554;-77
2023/10/23 02:02:40;;;;;;;4.00;0.80;;;;;;;13.49;74.02;99584.78;4471162;32;34402;-76
2023/10/23 02:05:15;;;;;;;0.95;0.85;;;;;;;13.58;73.26;99591.47;4470939;32;34025;-75
2023/10/23 02:07:44;;;;;;;0.90;0.70;;;;;;;13.61;72.52;99583.59;4463475;32;33989;-75
2023/10/23 02:10:19;;;;;;;1.73;0.70;;;;;;;13.39;73.30;99588.53;4470685;32;33740;-77
2023/10/23 02:12:52;;;;;;;0.70;0.70;;;;;;;13.11;73.85;99589.19;4477783;32;33405;-76
2023/10/23 02:15:21;;;;;;;1.20;1.10;;;;;;;13.49;71.92;99589.16;4483968;32;34796;-75
2023/10/23 02:17:53;;;;;;;0.70;0.70;;;;;;;13.46;71.92;99590.09;4470724;32;33425;-75
2023/10/23 02:20:27;;;;;;;0.60;0.60;;;;;;;13.27;72.43;99587.09;4477540;32;34078;-75
2023/10/23 02:22:57;;;;;;;1.55;0.75;;;;;;;13.11;72.63;99580.53;4461830;32;34367;-75
2023/10/23 02:25:26;;;;;;;0.90;0.65;;;;;;;13.09;72.96;99583.16;4464750;32;33659;-75
2023/10/23 02:27:56;;;;;;;1.50;0.70;;;;;;;13.12;72.55;99580.50;4484322;32;35529;-74
2023/10/23 02:30:25;;;;;;;1.48;0.85;;;;;;;13.01;73.21;99587.72;4478683;32;33102;-74
2023/10/23 02:32:56;;;;;;;0.82;0.75;;;;;;;13.01;73.27;99583.38;4480188;32;33484;-76
2023/10/23 02:35:26;;;;;;;0.70;0.70;;;;;;;12.95;72.96;99587.88;4464294;32;34715;-75
2023/10/23 02:37:59;;;;;;;1.00;0.90;;;;;;;12.99;72.89;99589.50;4477578;32;33705;-75
2023/10/23 02:40:28;;;;;;;0.60;0.60;;;;;;;13.11;73.08;99591.81;4477659;32;33395;-75
2023/10/23 02:42:58;;;;;;;0.80;0.60;;;;;;;13.04;72.88;99590.25;4467747;32;33139;-74
2023/10/23 02:45:27;;;;;;;0.80;0.80;;;;;;;12.95;73.39;99595.69;4468971;32;34769;-75
2023/10/23 02:48:03;;;;;;;0.60;0.60;;;;;;;13.00;73.40;99597.28;4478071;32;33840;-74
2023/10/23 02:50:32;;;;;;;1.27;0.93;;;;;;;13.04;73.27;99595.47;4482404;32;32985;-75
2023/10/23 02:53:01;;;;;;;0.95;0.75;;;;;;;12.88;73.47;99595.00;4475654;32;33483;-75
2023/10/23 02:55:30;;;;;;;1.02;0.80;;;;;;;13.05;73.41;99593.69;4462665;32;33800;-75
2023/10/23 02:58:06;;;;;;;1.75;0.65;;;;;;;13.15;72.65;99595.22;4466439;32;33740;-76
2023/10/23 03:00:34;;;;;;;0.68;0.68;;;;;;;13.01;73.25;99595.53;4471632;32;33189;-76
2023/10/23 03:03:05;;;;;;;1.27;0.95;;;;;;;13.09;73.18;99596.19;4478239;32;33875;-74
2023/10/23 03:05:37;;;;;;;0.82;0.77;;;;;;;13.02;73.62;99598.13;4472754;32;33617;-75
2023/10/23 03:08:07;;;;;;;0.73;0.68;;;;;;;13.09;73.56;99595.34;4470071;32;33780;-77
2023/10/23 03:10:36;;;;;;;0.65;0.65;;;;;;;13.03;73.79;99602.41;4468135;32;32806;-75
2023/10/23 03:13:09;;;;;;;0.50;0.50;;;;;;;13.19;73.47;99610.72;4479721;32;33420;-74
2023/10/23 03:15:40;;;;;;;1.00;0.77;;;;;;;13.09;73.51;99601.41;4464802;32;33886;-75
2023/10/23 03:18:11;;;;;;;0.70;0.70;;;;;;;13.22;73.63;99607.19;4478202;32;33141;-75
2023/10/23 03:20:40;;;;;;;0.57;0.57;;;;;;;13.09;73.95;99611.81;4478874;32;33883;-74
2023/10/23 03:23:10;;;;;;;0.70;0.70;;;;;;;13.17;74.14;99602.09;4468549;32;33567;-75
2023/10/23 03:25:39;;;;;;;1.27;0.90;;;;;;;13.28;73.72;99603.59;4470965;32;33451;-75
2023/10/23 03:28:12;;;;;;;1.08;0.80;;;;;;;13.35;73.15;99598.19;4462124;32;34552;-75
2023/10/23 03:30:41;;;;;;;0.70;0.70;;;;;;;13.23;73.60;99599.31;4477142;32;33939;-75
2023/10/23 03:33:11;;;;;;;0.73;0.70;;;;;;;13.14;74.08;99607.34;4469282;32;33636;-76
2023/10/23 03:35:42;;;;;;;1.48;0.98;;;;;;;13.36;73.45;99614.66;4475527;32;34059;-76
2023/10/23 03:38:16;;;;;;;0.70;0.70;;;;;;;13.05;74.52;99610.22;4477887;32;34340;-75
2023/10/23 03:40:57;;;;;;;1.37;0.95;;;;;;;13.03;74.86;99612.84;4467043;32;32919;-75
2023/10/23 03:43:28;;;;;;;0.68;0.68;;;;;;;13.09;74.81;99611.81;4472224;32;34154;-75
2023/10/23 03:46:02;;;;;;;1.23;0.75;;;;;;;13.20;74.06;99616.78;4475364;32;33092;-75
2023/10/23 03:48:39;;;;;;;0.85;0.80;;;;;;;13.24;74.05;99614.06;4472033;32;33420;-75
2023/10/23 03:51:08;;;;;;;0.70;0.70;;;;;;;13.16;74.54;99609.94;4469671;32;31954;-77
2023/10/23 03:53:39;;;;;;;0.95;0.77;;;;;;;13.17;74.29;99617.72;4478137;32;33810;-75
2023/10/23 03:56:10;;;;;;;2.97;1.12;;;;;;;13.27;73.91;99612.28;4474628;32;33676;-75
2023/10/23 03:58:44;;;;;;;1.33;0.80;;;;;;;13.01;74.88;99619.81;4467009;32;34348;-75
2023/10/23 04:01:13;;;;;;;1.98;0.80;;;;;;;13.18;74.14;99622.00;4470173;32;33986;-78
2023/10/23 04:03:42;;;;;;;1.08;0.70;;;;;;;13.15;74.59;99616.88;4471866;32;33263;-75
2023/10/23 04:06:11;;;;;;;2.42;0.90;;;;;;;13.19;74.31;99626.34;4466338;32;34530;-75
2023/10/23 04:08:44;;;;;;;1.37;0.85;;;;;;;13.11;74.68;99628.28;4476692;32;33872;-77
2023/10/23 04:11:14;;;;;;;0.93;0.90;;;;;;;13.01;74.85;99629.41;4478049;32;32979;-75
2023/10/23 04:13:44;;;;;;;0.88;0.80;;;;;;;13.17;74.72;99629.88;4476467;32;34608;-74
2023/10/23 04:16:17;;;;;;;0.73;0.73;;;;;;;13.30;73.25;99633.06;4466470;32;34153;-75
2023/10/23 04:18:47;;;;;;;2.92;1.58;;;;;;;12.97;74.79;99638.16;4476925;32;34056;-76
2023/10/23 04:21:20;;;;;;;3.58;0.60;;;;;;;13.17;73.92;99640.31;4467261;32;34445;-75
2023/10/23 04:23:52;;;;;;;0.60;0.60;;;;;;;13.24;73.40;99642.72;4464008;32;32685;-75
2023/10/23 04:26:21;;;;;;;1.83;0.80;;;;;;;13.28;72.88;99648.72;4465584;32;35710;-75
2023/10/23 04:28:52;;;;;;;0.73;0.68;;;;;;;13.10;73.34;99650.00;4462066;32;33972;-76
2023/10/23 04:31:21;;;;;;;1.40;1.30;;;;;;;13.17;73.27;99653.34;4456150;32;32826;-75
2023/10/23 04:33:51;;;;;;;0.70;0.70;;;;;;;13.04;73.42;99644.94;4473409;32;33449;-76
2023/10/23 04:36:20;;;;;;;1.30;0.88;;;;;;;12.79;75.21;99640.31;4449127;32;33664;-77
2023/10/23 04:38:56;;;;;;;0.80;0.80;;;;;;;13.03;73.67;99641.47;4461980;32;33896;-75
2023/10/23 04:41:25;;;;;;;2.40;0.93;;;;;;;13.04;73.54;99639.72;4463012;32;32923;-75
2023/10/23 04:43:57;;;;;;;1.37;0.90;;;;;;;13.01;73.58;99647.62;4461611;32;33541;-75
2023/10/23 04:46:26;;;;;;;1.65;0.98;;;;;;;12.98;73.99;99650.31;4466350;32;33847;-75
2023/10/23 04:48:58;;;;;;;1.40;1.00;;;;;;;12.60;75.60;99657.25;4472843;32;33688;-75
2023/10/23 04:51:26;;;;;;;;;;;;;;;13.03;74.07;99651.91;4473616;32;99445;-77
2023/10/23 04:53:56;;;;;;;1.25;1.10;;;;;;;13.00;73.96;99654.59;4475896;32;34193;-75
2023/10/23 04:56:26;;;;;;;1.98;1.40;;;;;;;13.08;74.17;99658.75;4477666;32;33775;-75
2023/10/23 04:59:03;;;;;;;1.48;1.37;;;;;;;12.98;74.20;99660.72;4478387;32;33697;-74
2023/10/23 05:01:34;;;;;;;1.83;1.00;;;;;;;12.99;74.29;99659.81;4463989;32;33709;-75
2023/10/23 05:04:06;;;;;;;0.95;0.85;;;;;;;13.02;74.15;99651.94;4477587;32;33030;-77
2023/10/23 05:06:36;;;;;;;3.08;0.80;;;;;;;13.18;73.43;99648.06;4475125;32;33917;-78
2023/10/23 05:09:10;;;;;;;0.90;0.80;;;;;;;13.33;72.44;99646.84;4475156;32;35682;-75
2023/10/23 05:11:43;;;;;;;1.65;1.15;;;;;;;13.15;73.14;99648.16;4474960;32;33160;-75
2023/10/23 05:14:14;;;;;;;1.30;1.20;;;;;;;13.17;73.33;99655.94;4478913;32;34425;-78
2023/10/23 05:16:46;;;;;;;1.97;0.90;;;;;;;13.13;73.46;99649.94;4467725;32;33007;-75
2023/10/23 05:19:15;;;;;;;1.02;0.90;;;;;;;13.29;72.72;99647.84;4461542;32;34500;-75
2023/10/23 05:21:49;;;;;;;0.85;0.85;;;;;;;13.27;72.37;99644.44;4481703;32;33430;-77
2023/10/23 05:24:17;;;;;;;0.70;0.70;;;;;;;12.92;74.28;99650.44;4479698;32;33503;-75
2023/10/23 05:26:52;;;;;;;0.80;0.80;;;;;;;13.15;72.94;99645.53;4477084;32;33620;-77
2023/10/23 05:29:23;;;;;;;0.70;0.70;;;;;;;13.08;73.47;99653.56;4476239;32;33862;-74
2023/10/23 05:31:54;;;;;;;0.70;0.70;;;;;;;13.06;73.50;99648.38;4470364;32;32529;-75
2023/10/23 05:34:23;;;;;;;1.67;0.90;;;;;;;13.14;73.61;99654.22;4466840;32;34492;-75
2023/10/23 05:36:55;;;;;;;1.37;0.68;;;;;;;13.01;74.26;99658.03;4470490;32;34055;-75
2023/10/23 05:39:24;;;;;;;0.80;0.80;;;;;;;13.10;73.78;99663.03;4477047;32;33943;-77
2023/10/23 05:41:54;;;;;;;0.65;0.65;;;;;;;13.33;72.71;99672.91;4477243;32;34133;-75
2023/10/23 05:44:24;;;;;;;1.17;0.80;;;;;;;13.37;72.05;99678.91;4481747;32;32975;-77
2023/10/23 05:47:06;;;;;;;1.02;0.70;;;;;;;13.34;72.09;99679.00;4476047;32;35025;-75
2023/10/23 05:49:36;;;;;;;0.70;0.70;;;;;;;13.09;73.59;99681.28;4469195;32;33572;-75
2023/10/23 05:52:06;;;;;;;0.90;0.90;;;;;;;13.23;72.60;99687.03;4468596;32;34106;-77
2023/10/23 05:54:35;;;;;;;0.60;0.60;;;;;;;12.88;74.40;99677.44;4476288;32;33819;-75
2023/10/23 05:57:05;;;;;;;0.60;0.60;;;;;;;13.09;73.53;99686.50;4468134;32;34864;-75
2023/10/23 05:59:42;;;;;;;0.93;0.70;;;;;;;13.20;73.21;99687.97;4472399;32;34906;-76
2023/10/23 06:02:12;;;;;;;0.62;0.62;;;;;;;13.30;72.40;99691.22;4470909;32;33143;-75
2023/10/23 06:04:51;;;;;;;1.37;0.77;;;;;;;13.34;72.57;99692.03;4468105;32;33316;-75
2023/10/23 06:07:29;;;;;;;1.58;0.80;;;;;;;13.28;73.47;99694.78;4475813;32;34854;-76
2023/10/23 06:09:59;;;;;;;1.08;0.98;;;;;;;13.30;73.29;99699.06;4482158;32;33703;-74
2023/10/23 06:12:34;;;;;;;0.65;0.55;;;;;;;13.39;73.02;99701.44;4473110;32;33297;-74
2023/10/23 06:15:09;;;;;;;0.77;0.77;;;;;;;13.27;74.10;99700.84;4461873;32;34517;-74
2023/10/23 06:17:37;;;;;;;3.10;0.70;;;;;;;13.47;73.16;99706.47;4464434;32;34027;-77
2023/10/23 06:20:10;;;;;;;0.98;0.98;;;;;;;13.49;72.99;99711.63;4476576;32;33892;-75
2023/10/23 06:22:39;;;;;;;0.82;0.80;;;;;;;13.41;73.64;99715.28;4478992;32;33111;-74
2023/10/23 06:25:10;;;;;;;1.42;1.12;;;;;;;13.51;73.75;99713.31;4473959;32;33577;-75
2023/10/23 06:27:38;;;;;;;0.93;0.88;;;;;;;13.47;74.01;99714.28;4461100;32;33132;-75
2023/10/23 06:30:17;;;;;;;0.68;0.68;;;;;;;13.63;73.67;99720.81;4459722;32;33619;-75
2023/10/23 06:32:45;;;;;;;1.05;0.60;;;;;;;13.60;73.78;99714.81;4480346;32;33065;-75
2023/10/23 06:35:21;;;;;;;0.70;0.70;;;;;;;13.74;73.70;99719.69;4478934;32;34181;-77
2023/10/23 06:37:58;;;;;;;0.60;0.60;;;;;;;13.77;73.58;99717.88;4466781;32;33611;-76
2023/10/23 06:40:27;;;;;;;0.80;0.80;;;;;;;13.92;73.14;99723.56;4463490;32;33371;-77
2023/10/23 06:42:57;;;;;;;1.25;0.73;;;;;;;13.84;73.90;99719.44;4480561;32;33296;-77
2023/10/23 06:45:27;;;;;;;0.60;0.60;;;;;;;14.01;73.25;99724.19;4476530;32;33803;-77
2023/10/23 06:48:16;;;;;;;1.05;0.80;;;;;;;14.16;73.17;99719.44;4468532;32;33504;-75
2023/10/23 06:50:48;;;;;;;2.03;1.10;;;;;;;14.18;73.30;99721.13;4462549;32;33180;-74
2023/10/23 06:53:25;;;;;;;2.42;0.90;;;;;;;14.14;74.05;99718.66;4479760;32;33235;-75
2023/10/23 06:55:55;;;;;;;2.25;1.12;;;;;;;14.03;75.43;99716.31;4477977;32;33499;-75
2023/10/23 06:58:27;;;;;;;1.10;1.00;;;;;;;14.12;75.64;99718.69;4483381;32;33649;-76
2023/10/23 07:00:57;;;;;;;3.47;1.10;;;;;;;13.98;77.00;99712.97;4478166;32;34594;-76
2023/10/23 07:03:26;;;;;;;2.72;1.42;;;;;;;14.39;75.42;99724.88;4476572;32;34038;-78
2023/10/23 07:05:55;;;;;;;4.68;1.30;;;;;;;14.51;74.66;99713.22;4470306;31;32556;-76
2023/10/23 07:08:29;;;;;;;2.30;1.30;;;;;;;14.57;74.21;99727.88;4462178;32;33986;-76
2023/10/23 07:10:58;;;;;;;1.92;1.33;;;;;;;14.62;74.63;99729.50;4473899;32;34071;-74
2023/10/23 07:13:29;;;;;;;3.20;1.87;;;;;;;14.48;76.44;99726.37;4465161;32;32938;-75
2023/10/23 07:16:11;;;;;;;2.55;1.45;;;;;;;14.78;74.58;99726.41;4468511;32;34159;-77
2023/10/23 07:18:39;;;;;;;;;;;;;;;14.61;75.80;99719.06;4466081;31;34171;-75
2023/10/23 07:21:15;;;;;;;2.67;1.37;;;;;;;14.88;74.49;99720.88;4471731;31;33625;-77
2023/10/23 07:23:44;;;;;;;3.22;1.65;;;;;;;15.04;73.78;99718.63;4470272;31;33415;-74
2023/10/23 07:26:14;;;;;;;2.42;1.52;;;;;;;14.82;74.88;99718.44;4476670;31;34667;-77
2023/10/23 07:28:44;;;;;;;3.25;1.45;;;;;;;15.31;72.35;99727.37;4470762;31;33716;-76
2023/10/23 07:31:17;;;;;;;2.97;1.40;;;;;;;15.09;72.67;99727.19;4470529;32;34342;-74
2023/10/23 07:33:46;;;;;;;3.80;1.60;;;;;;;15.12;72.95;99737.53;4475241;32;33876;-74
2023/10/23 07:36:18;;;;;;;9.55;2.28;;;;;;;15.17;72.38;99734.78;4459891;32;33532;-76
2023/10/23 07:38:47;;;;;;;3.70;1.70;;;;;;;15.19;71.87;99729.53;4461080;32;34788;-74
2023/10/23 07:41:19;;;;;;;3.10;1.77;;;;;;;15.13;71.99;99739.25;4465743;32;35809;-77
2023/10/23 07:43:48;;;;;;;1.83;1.45;;;;;;;15.30;71.33;99730.88;4473205;32;34642;-78
2023/10/23 07:46:19;;;;;;;3.22;1.70;;;;;;;15.39;70.67;99739.34;4466634;32;33667;-76
2023/10/23 07:48:49;;;;;;;3.12;1.73;;;;;;;15.35;70.97;99734.22;4471114;32;33645;-76
2023/10/23 07:51:18;;;;;;;3.87;2.22;;;;;;;15.28;71.79;99740.53;4464123;32;33824;-76
2023/10/23 07:53:50;;;;;;;3.20;1.90;;;;;;;15.15;72.65;99754.91;4473724;31;33338;-76
2023/10/23 07:56:22;;;;;;;4.80;2.10;;;;;;;15.38;71.89;99754.16;4473723;32;33925;-75
2023/10/23 07:58:51;;;;;;;3.22;1.87;;;;;;;15.47;71.98;99751.25;4464261;32;34537;-77
2023/10/23 08:01:24;;;;;;;3.75;2.17;;;;;;;15.66;71.61;99748.91;4473271;32;34252;-76
2023/10/23 08:03:53;;;;;;;4.93;2.15;;;;;;;15.66;71.67;99750.69;4474692;31;33796;-75
2023/10/23 08:06:26;;;;;;;4.47;2.35;;;;;;;15.49;72.57;99738.16;4475122;32;34156;-74
2023/10/23 08:08:55;;;;;;;3.75;2.00;;;;;;;15.59;72.48;99742.16;4467578;32;34894;-77
2023/10/23 08:11:27;;;;;;;4.07;2.30;;;;;;;15.80;71.79;99740.59;4460338;32;33520;-77
2023/10/23 08:13:56;;;;;;;3.97;2.20;;;;;;;15.78;72.06;99739.84;4458556;32;33727;-77
2023/10/23 08:16:28;;;;;;;3.62;2.42;;;;;;;15.94;71.63;99725.28;4461702;32;33723;-77
2023/10/23 08:18:58;;;;;;;5.18;2.65;;;;;;;15.69;73.00;99727.88;4468155;32;33319;-77
2023/10/23 08:21:29;;;;;;;4.82;2.40;;;;;;;15.86;71.71;99723.88;4477112;32;32070;-74
2023/10/23 08:23:58;;;;;;;5.53;2.72;;;;;;;15.66;72.57;99730.59;4465674;32;34323;-77
2023/10/23 08:26:31;;;;;;;5.07;2.75;;;;;;;15.54;73.02;99726.63;4465409;32;33285;-75
2023/10/23 08:29:00;;;;;;;5.68;2.17;;;;;;;15.86;71.52;99731.72;4466135;32;33601;-75
2023/10/23 08:31:34;;;;;;;4.03;2.10;;;;;;;15.77;71.47;99728.50;4474823;32;33870;-76
2023/10/23 08:34:11;;;;;;;4.00;2.05;;;;;;;15.37;72.44;99728.94;4469558;32;33336;-78
2023/10/23 08:36:40;;;;;;;3.55;2.00;;;;;;;15.96;70.31;99725.25;4473772;32;34196;-75
2023/10/23 08:39:19;;;;;;;4.07;2.25;;;;;;;15.66;71.21;99721.91;4466309;32;33858;-77
2023/10/23 08:41:49;;;;;;;5.22;2.33;;;;;;;16.13;69.84;99719.44;4465161;32;34441;-75
2023/10/23 08:44:22;;;;;;;3.65;1.60;;;;;;;16.21;69.02;99720.00;4469234;32;33172;-76
2023/10/23 08:46:52;;;;;;;4.70;2.03;;;;;;;16.27;68.59;99724.19;4466055;32;33459;-76
2023/10/23 08:49:24;;;;;;;14.15;3.55;;;;;;;16.17;69.17;99716.66;4465173;32;33334;-76
2023/10/23 08:51:55;;;;;;;3.92;2.03;;;;;;;16.31;69.04;99715.28;4472470;31;33803;-76
2023/10/23 08:54:28;;;;;;;3.05;1.77;;;;;;;16.45;67.90;99710.41;4468104;31;33607;-77
2023/10/23 08:57:03;;;;;;;4.25;1.58;;;;;;;16.52;66.74;99716.28;4474981;32;33736;-76
2023/10/23 08:59:32;;;;;;;2.12;1.20;;;;;;;16.79;66.02;99719.63;4473330;32;34857;-76
2023/10/23 09:02:06;;;;;;;2.97;1.58;;;;;;;16.86;65.19;99726.34;4476860;32;33859;-78
2023/10/23 09:04:35;;;;;;;3.55;1.67;;;;;;;16.91;65.21;99721.78;4474076;32;34251;-77
2023/10/23 09:07:05;;;;;;;3.00;1.48;;;;;;;17.00;64.94;99723.22;4469868;32;34538;-76
2023/10/23 09:09:33;;;;;;;2.90;1.40;;;;;;;17.10;62.81;99721.94;4471152;32;33534;-78
2023/10/23 09:12:07;;;;;;;4.18;1.70;;;;;;;17.02;62.31;99729.25;4477227;32;33445;-77
2023/10/23 09:14:39;;;;;;;2.58;1.30;;;;;;;17.06;62.26;99725.59;4468968;32;33457;-77
2023/10/23 09:17:20;;;;;;;1.50;1.02;;;;;;;17.12;62.38;99729.75;4470495;32;33329;-76
2023/10/23 09:19:57;;;;;;;2.05;1.08;;;;;;;17.19;62.12;99720.72;4468356;32;34483;-77
2023/10/23 09:22:30;;;;;;;1.95;1.27;;;;;;;17.14;59.45;99726.16;4476196;32;33587;-76
2023/10/23 09:25:01;;;;;;;3.25;1.33;;;;;;;17.32;59.70;99726.31;4460978;32;33257;-76
2023/10/23 09:27:33;;;;;;;3.20;1.33;;;;;;;17.33;59.99;99728.03;4462661;32;33856;-77
2023/10/23 09:30:03;;;;;;;1.62;1.12;;;;;;;17.36;61.01;99718.25;4462649;32;34050;-78
2023/10/23 09:32:37;;;;;;;1.87;1.05;;;;;;;17.31;60.46;99714.97;4473249;32;33858;-75
2023/10/23 09:35:07;;;;;;;2.65;1.00;;;;;;;17.30;59.63;99718.53;4476763;32;34176;-78
2023/10/23 09:37:37;;;;;;;1.35;1.00;;;;;;;17.54;59.68;99723.66;4472797;32;33908;-76
2023/10/23 09:40:08;;;;;;;3.37;1.33;;;;;;;17.65;59.81;99722.31;4459612;32;33507;-76
2023/10/23 09:42:38;;;;;;;1.77;1.00;;;;;;;17.60;60.10;99721.66;4471584;32;34479;-76
2023/10/23 09:45:08;;;;;;;0.95;0.80;;;;;;;17.68;60.57;99714.31;4470127;32;33479;-78
2023/10/23 09:47:41;;;;;;;1.97;0.77;;;;;;;17.56;58.82;99725.31;4478081;31;32936;-76
2023/10/23 09:50:10;;;;;;;2.33;1.05;;;;;;;17.68;58.26;99724.78;4472227;32;34000;-76
2023/10/23 09:52:41;;;;;;;1.92;0.85;;;;;;;17.78;58.76;99727.03;4460346;32;33575;-78
2023/10/23 09:55:11;;;;;;;1.20;0.90;;;;;;;18.07;59.43;99736.31;4469181;32;32747;-79
2023/10/23 09:57:44;;;;;;;2.28;1.02;;;;;;;17.89;59.48;99728.31;4462692;32;33027;-76
2023/10/23 10:00:14;;;;;;;2.17;0.90;;;;;;;18.15;57.69;99734.22;4472805;32;33684;-79
2023/10/23 10:02:49;;;;;;;1.67;0.80;;;;;;;18.16;58.48;99725.44;4472061;32;34447;-76
2023/10/23 10:05:26;;;;;;;1.40;0.60;;;;;;;18.06;58.62;99721.50;4471553;32;33850;-77
2023/10/23 10:08:00;;;;;;;1.92;1.10;;;;;;;18.31;56.03;99722.16;4470207;31;33299;-77
2023/10/23 10:10:32;;;;;;;2.35;1.05;;;;;;;17.88;58.21;99710.03;4462741;32;34920;-76
2023/10/23 10:13:04;;;;;;;1.50;1.02;;;;;;;18.22;57.33;99712.03;4480702;32;35248;-76
2023/10/23 10:15:34;;;;;;;1.98;1.00;;;;;;;18.14;57.59;99714.13;4470781;32;33347;-79
2023/10/23 10:18:06;;;;;;;1.45;0.77;;;;;;;18.35;57.03;99712.34;4467086;32;34338;-77
2023/10/23 10:20:38;;;;;;;1.42;0.80;;;;;;;18.36;56.59;99702.69;4478386;32;32421;-78
2023/10/23 10:23:15;;;;;;;2.28;0.95;;;;;;;18.55;57.08;99706.16;4463872;32;33797;-75
2023/10/23 10:25:44;;;;;;;1.65;1.00;;;;;;;18.54;57.30;99709.72;4469583;32;32488;-77
2023/10/23 10:28:16;;;;;;;1.70;0.77;;;;;;;18.56;57.05;99705.28;4467623;32;33731;-77
2023/10/23 10:30:46;;;;;;;0.73;0.70;;;;;;;18.69;56.35;99709.03;4476744;32;34300;-77
2023/10/23 10:33:25;;;;;;;1.45;0.80;;;;;;;18.86;56.90;99705.63;4486650;31;33438;-76
2023/10/23 10:36:16;;;;;;;1.35;0.77;;;;;;;18.82;57.63;99703.22;4476932;31;33330;-76
2023/10/23 10:39:12;;;;;;;2.67;0.70;;;;;;;18.81;57.93;99699.75;4472632;32;34398;-79
2023/10/23 10:41:44;;;;;;;0.57;0.57;;;;;;;18.69;57.17;99695.03;4468984;31;33962;-76
2023/10/23 10:44:18;;;;;;;1.10;0.60;;;;;;;18.80;56.73;99687.53;4468774;32;34443;-79
2023/10/23 10:46:50;;;;;;;4.62;0.65;;;;;;;18.91;57.11;99682.59;4476200;32;34239;-77
2023/10/23 10:49:33;;;;;;;0.70;0.40;;;;;;;18.85;56.08;99687.34;4477718;32;33849;-79
2023/10/23 10:52:16;;;;;;;2.85;0.75;;;;;;;19.23;55.89;99684.62;4463946;32;34081;-77
2023/10/23 10:54:45;;;;;;;1.15;0.90;;;;;;;19.00;56.47;99678.69;4463832;32;34608;-78
2023/10/23 10:57:16;;;;;;;1.15;0.60;;;;;;;19.13;56.13;99685.06;4465778;32;33649;-77
2023/10/23 10:59:45;;;;;;;2.50;0.70;;;;;;;19.08;56.45;99687.06;4474437;32;32923;-79
2023/10/23 11:02:15;;;;;;;0.47;0.47;;;;;;;19.19;56.51;99681.28;4468972;32;34895;-77
2023/10/23 11:04:45;;;;;;;0.88;0.60;;;;;;;19.21;56.56;99679.44;4471187;32;34281;-78
2023/10/23 11:07:17;;;;;;;1.20;0.65;;;;;;;19.24;56.45;99683.69;4470730;32;33512;-77
2023/10/23 11:09:46;;;;;;;4.85;0.50;;;;;;;19.42;55.79;99685.41;4468825;32;33547;-76
2023/10/23 11:12:18;;;;;;;1.80;0.60;;;;;;;19.52;56.04;99680.53;4469498;32;34133;-77
2023/10/23 11:14:47;;;;;;;1.15;0.65;;;;;;;19.45;57.31;99687.91;4471625;32;33736;-79
2023/10/23 11:17:19;;;;;;;0.57;0.30;;;;;;;19.63;55.63;99675.59;4468813;32;32892;-75
2023/10/23 11:19:49;;;;;;;0.40;0.40;;;;;;;19.53;56.52;99679.63;4468059;32;33644;-78
2023/10/23 11:22:21;;;;;;;3.90;0.70;;;;;;;19.61;55.83;99672.19;4467616;32;34675;-77
2023/10/23 11:24:50;;;;;;;1.00;0.60;;;;;;;19.68;57.04;99672.75;4475816;32;34471;-75
2023/10/23 11:27:20;;;;;;;1.30;0.52;;;;;;;19.57;57.50;99668.88;4471020;32;33586;-78
2023/10/23 11:29:49;;;;;;;1.37;0.75;;;;;;;19.71;57.22;99670.81;4471894;32;33310;-78
2023/10/23 11:32:22;;;;;;;0.88;0.52;;;;;;;19.87;57.14;99663.00;4471522;32;33621;-76
2023/10/23 11:34:53;;;;;;;1.50;0.50;;;;;;;19.81;56.14;99652.75;4476881;32;33870;-77
2023/10/23 11:37:24;;;;;;;1.10;0.68;;;;;;;19.81;56.30;99653.62;4462766;32;34968;-77
2023/10/23 11:39:56;;;;;;;0.40;0.40;;;;;;;19.78;55.49;99658.19;4470223;32;33475;-76
2023/10/23 11:42:25;;;;;;;1.45;0.60;;;;;;;19.91;55.80;99651.37;4477596;32;33534;-78
2023/10/23 11:44:54;;;;;;;0.80;0.40;;;;;;;20.00;56.22;99642.13;4469168;32;34251;-78
2023/10/23 11:47:28;;;;;;;0.82;0.40;;;;;;;20.06;57.06;99633.06;4474762;32;33877;-76
2023/10/23 11:49:58;;;;;;;;;;;;;;;19.99;56.58;99622.84;4466348;32;33661;-76
2023/10/23 11:52:29;;;;;;;0.62;0.40;;;;;;;20.05;55.21;99613.75;4465205;32;33873;-76
2023/10/23 11:54:58;;;;;;;1.62;0.50;;;;;;;20.13;55.50;99608.09;4468631;32;34283;-78